createdAt,value
2018-03-16T00:03:41.419Z,7.53
2018-03-16T00:08:42.362Z,7.47
2018-03-16T00:13:43.304Z,8.13
2018-03-16T00:18:44.425Z,7.77
2018-03-16T00:23:45.327Z,8.33
2018-03-16T00:28:46.628Z,9.00
2018-03-16T00:33:47.541Z,7.70
2018-03-16T00:38:48.507Z,8.37
2018-03-16T00:43:49.457Z,8.20
2018-03-16T00:48:50.393Z,10.30
2018-03-16T00:53:51.588Z,8.27
2018-03-16T00:58:52.519Z,10.67
2018-03-16T01:03:53.455Z,9.40
2018-03-16T01:08:54.412Z,10.87
2018-03-16T01:13:55.354Z,11.13
2018-03-16T01:18:56.284Z,9.93
2018-03-16T01:23:57.221Z,11.37
2018-03-16T01:28:58.143Z,11.70
2018-03-16T01:33:59.063Z,11.00
2018-03-16T01:39:00.077Z,10.50
2018-03-16T01:44:01.013Z,10.60
2018-03-16T01:49:01.936Z,11.43
2018-03-16T01:54:02.880Z,12.03
2018-03-16T01:59:03.800Z,11.33
2018-03-16T02:04:04.719Z,11.40
2018-03-16T02:09:05.657Z,11.60
2018-03-16T02:14:06.597Z,10.37
2018-03-16T02:19:07.551Z,11.20
2018-03-16T02:24:08.680Z,10.17
2018-03-16T02:29:09.602Z,11.17
2018-03-16T02:34:10.842Z,12.07
2018-03-16T02:39:11.815Z,11.23
2018-03-16T02:44:12.750Z,9.47
2018-03-16T02:49:13.729Z,8.93
2018-03-16T02:54:14.681Z,10.20
2018-03-16T02:59:15.642Z,8.47
2018-03-16T03:04:16.580Z,8.73
2018-03-16T03:09:17.534Z,7.90
2018-03-16T03:14:18.464Z,7.13
2018-03-16T03:19:19.385Z,7.33
2018-03-16T03:24:20.309Z,6.30
2018-03-16T03:29:21.230Z,6.20
2018-03-16T03:34:22.175Z,5.93
2018-03-16T03:39:23.116Z,6.50
2018-03-16T03:44:24.048Z,6.83
2018-03-16T03:49:25.002Z,4.27
2018-03-16T03:54:25.933Z,5.00
2018-03-16T03:59:26.871Z,4.60
2018-03-16T04:04:27.822Z,5.07
2018-03-16T04:09:28.732Z,4.73
2018-03-16T04:14:29.674Z,4.60
2018-03-16T04:19:30.605Z,6.90
2018-03-16T04:24:31.522Z,4.30
2018-03-16T04:29:32.734Z,3.83
2018-03-16T04:34:33.655Z,3.43
2018-03-16T04:39:34.608Z,2.57
2018-03-16T04:44:35.526Z,2.43
2018-03-16T04:49:36.481Z,3.57
2018-03-16T04:54:37.410Z,2.30
2018-03-16T04:59:38.339Z,2.83
2018-03-16T05:04:39.278Z,2.93
2018-03-16T05:09:40.188Z,1.87
2018-03-16T05:14:41.114Z,2.00
2018-03-16T05:19:42.047Z,2.20
2018-03-16T05:24:42.987Z,2.73
2018-03-16T05:29:43.922Z,2.53
2018-03-16T05:34:44.842Z,2.93
2018-03-16T05:39:45.801Z,2.33
2018-03-16T05:44:46.721Z,2.27
2018-03-16T05:49:47.659Z,3.23
2018-03-16T05:54:48.584Z,2.60
2018-03-16T05:59:49.506Z,2.73
2018-03-16T06:04:50.441Z,2.20
2018-03-16T06:09:51.388Z,2.20
2018-03-16T06:14:52.331Z,2.77
2018-03-16T06:19:53.266Z,3.03
2018-03-16T06:24:54.204Z,2.90
2018-03-16T06:29:55.127Z,3.00
2018-03-16T06:34:56.050Z,2.73
2018-03-16T06:39:57.034Z,2.33
2018-03-16T06:44:58.106Z,3.10
2018-03-16T06:49:58.959Z,2.27
2018-03-16T06:54:59.889Z,3.20
2018-03-16T07:00:01.158Z,2.67
2018-03-16T07:05:02.403Z,2.80
2018-03-16T07:10:03.600Z,3.43
2018-03-16T07:20:42.177Z,2.40
2018-03-16T07:25:43.105Z,2.53
2018-03-16T07:30:44.048Z,2.20
2018-03-16T07:35:44.971Z,2.73
2018-03-16T07:40:46.194Z,2.40
2018-03-16T07:45:53.248Z,3.20
2018-03-16T07:50:54.205Z,2.87
2018-03-16T07:55:55.120Z,2.67
2018-03-16T08:00:56.074Z,2.33
2018-03-16T08:05:56.991Z,2.87
2018-03-16T08:10:57.915Z,2.20
2018-03-16T08:15:58.844Z,3.30
2018-03-16T08:20:59.806Z,2.30
2018-03-16T08:26:00.736Z,2.90
2018-03-16T08:31:01.705Z,3.77
2018-03-16T08:36:02.645Z,2.40
2018-03-16T08:41:03.616Z,2.20
2018-03-16T08:46:04.598Z,3.00
2018-03-16T08:51:05.512Z,3.17
2018-03-16T08:56:06.450Z,3.83
2018-03-16T09:01:07.398Z,2.50
2018-03-16T09:06:08.332Z,2.07
2018-03-16T09:11:09.282Z,3.03
2018-03-16T09:16:10.232Z,2.10
2018-03-16T09:21:11.156Z,3.20
2018-03-16T09:26:12.078Z,2.80
2018-03-16T09:31:13.001Z,3.33
2018-03-16T09:36:13.936Z,2.93
2018-03-16T09:41:14.943Z,2.77
2018-03-16T09:46:15.883Z,2.90
2018-03-16T09:51:16.830Z,3.27
2018-03-16T09:56:17.842Z,3.23
2018-03-16T10:01:18.754Z,2.50
2018-03-16T10:06:19.694Z,3.07
2018-03-16T10:11:20.676Z,3.03
2018-03-16T10:16:21.585Z,3.27
2018-03-16T10:21:22.524Z,3.13
2018-03-16T10:26:24.377Z,2.50
2018-03-16T10:31:25.314Z,3.10
2018-03-16T10:36:26.266Z,2.33
2018-03-16T10:41:27.542Z,2.77
2018-03-16T10:46:28.462Z,2.73
2018-03-16T10:51:29.840Z,2.07
2018-03-16T10:56:30.786Z,1.97
2018-03-16T11:01:37.797Z,4.03
2018-03-16T11:06:38.753Z,2.07
2018-03-16T11:11:39.706Z,1.97
2018-03-16T11:16:40.678Z,2.00
2018-03-16T11:21:41.593Z,2.07
2018-03-16T11:26:42.549Z,1.73
2018-03-16T11:31:43.492Z,2.60
2018-03-16T11:36:44.424Z,2.97
2018-03-16T11:41:45.414Z,1.60
2018-03-16T11:46:46.363Z,1.67
2018-03-16T11:51:47.308Z,2.33
2018-03-16T11:56:48.240Z,1.80
2018-03-16T12:01:49.562Z,2.10
2018-03-16T12:06:50.536Z,1.67
2018-03-16T12:11:51.473Z,1.70
2018-03-16T12:16:52.421Z,1.70
2018-03-16T12:21:53.436Z,1.50
2018-03-16T12:26:54.375Z,1.53
2018-03-16T12:31:55.317Z,2.07
2018-03-16T12:36:56.275Z,1.50
2018-03-16T12:41:57.261Z,2.17
2018-03-16T12:46:58.193Z,2.00
2018-03-16T12:51:59.142Z,1.90
2018-03-16T12:57:00.085Z,1.77
2018-03-16T13:02:01.012Z,2.67
2018-03-16T13:07:01.949Z,1.73
2018-03-16T13:12:02.915Z,2.53
2018-03-16T13:17:03.863Z,2.37
2018-03-16T13:22:04.822Z,2.70
2018-03-16T13:27:05.788Z,1.60
2018-03-16T13:32:06.744Z,2.10
2018-03-16T13:37:07.697Z,2.67
2018-03-16T13:42:09.230Z,2.10
2018-03-16T13:47:10.181Z,1.63
2018-03-16T13:52:11.146Z,1.50
2018-03-16T13:57:12.095Z,1.97
2018-03-16T14:02:13.066Z,1.60
2018-03-16T14:07:13.999Z,2.37
2018-03-16T14:12:14.975Z,2.13
2018-03-16T14:17:15.893Z,1.97
2018-03-16T14:22:16.864Z,1.97
2018-03-16T14:27:17.851Z,1.90
2018-03-16T14:32:18.854Z,2.10
2018-03-16T14:37:19.821Z,2.50
2018-03-16T14:42:20.792Z,1.80
2018-03-16T14:47:21.776Z,1.90
2018-03-16T14:52:22.748Z,2.03
2018-03-16T14:57:23.731Z,1.47
2018-03-16T15:02:24.661Z,1.60
2018-03-16T15:07:25.630Z,1.80
2018-03-16T15:12:26.576Z,2.00
2018-03-16T15:17:27.541Z,2.00
2018-03-16T15:22:28.492Z,1.47
2018-03-16T15:27:29.495Z,1.50
2018-03-16T15:32:30.470Z,1.90
2018-03-16T15:37:31.450Z,1.47
2018-03-16T15:42:32.441Z,1.60
2018-03-16T15:47:33.425Z,3.37
2018-03-16T15:52:34.447Z,2.10
2018-03-16T15:57:35.359Z,1.80
2018-03-16T16:02:36.312Z,2.20
2018-03-16T16:07:37.273Z,2.27
2018-03-16T16:12:38.264Z,1.47
2018-03-16T16:17:39.256Z,1.73
2018-03-16T16:22:40.243Z,2.40
2018-03-16T16:27:41.242Z,1.70
2018-03-16T16:32:42.217Z,1.70
2018-03-16T16:37:43.165Z,2.30
2018-03-16T16:42:44.185Z,1.87
2018-03-16T16:47:45.203Z,1.97
2018-03-16T16:52:46.168Z,2.00
2018-03-16T16:57:47.250Z,2.27
2018-03-16T17:02:48.266Z,1.87
2018-03-16T17:07:49.277Z,2.33
2018-03-16T17:12:50.241Z,2.40
2018-03-16T17:17:51.234Z,2.50
2018-03-16T17:22:52.205Z,2.20
2018-03-16T17:27:53.485Z,2.10
2018-03-16T17:32:54.482Z,3.50
2018-03-16T17:37:55.446Z,2.30
2018-03-16T17:42:56.438Z,2.03
2018-03-16T17:47:57.433Z,2.23
2018-03-16T17:52:58.421Z,1.43
2018-03-16T17:57:59.408Z,1.80
2018-03-16T18:03:00.366Z,1.67
2018-03-16T18:08:01.359Z,2.10
2018-03-16T18:13:02.288Z,1.60
2018-03-16T18:18:03.254Z,2.30
2018-03-16T18:23:04.239Z,2.53
2018-03-16T18:28:05.190Z,2.30
2018-03-16T18:33:06.164Z,2.10
2018-03-16T18:38:07.194Z,2.83
2018-03-16T18:43:08.227Z,2.50
2018-03-16T18:48:09.206Z,1.70
2018-03-16T18:53:10.546Z,2.80
2018-03-16T18:58:11.514Z,3.50
2018-03-16T19:03:12.495Z,2.70
2018-03-16T19:08:13.461Z,2.73
2018-03-16T19:13:14.431Z,2.30
2018-03-16T19:18:15.447Z,2.30
2018-03-16T19:23:16.401Z,2.20
2018-03-16T19:28:17.361Z,2.53
2018-03-16T19:33:18.359Z,1.57
2018-03-16T19:38:19.321Z,1.70
2018-03-16T19:43:20.332Z,2.40
2018-03-16T19:48:21.329Z,2.10
2018-03-16T19:53:22.351Z,3.20
2018-03-16T19:58:23.339Z,3.33
2018-03-16T20:03:24.291Z,1.93
2018-03-16T20:08:25.309Z,2.97
2018-03-16T20:13:26.259Z,2.30
2018-03-16T20:18:27.201Z,2.77
2018-03-16T20:23:28.199Z,2.17
2018-03-16T20:28:29.210Z,1.80
2018-03-16T20:33:30.210Z,2.17
2018-03-16T20:38:31.190Z,1.97
2018-03-16T20:43:32.222Z,2.50
2018-03-16T20:48:33.173Z,3.30
2018-03-16T20:53:34.197Z,2.47
2018-03-16T20:58:35.349Z,2.40
2018-03-16T21:03:36.365Z,2.30
2018-03-16T21:08:37.332Z,2.23
2018-03-16T21:13:38.309Z,2.10
2018-03-16T21:18:39.311Z,2.57
2018-03-16T21:23:40.281Z,2.33
2018-03-16T21:28:41.260Z,2.30
2018-03-16T21:33:42.253Z,1.60
2018-03-16T21:38:43.208Z,2.17
2018-03-16T21:43:44.227Z,1.60
2018-03-16T21:48:45.218Z,2.50
2018-03-16T21:53:46.238Z,1.90
2018-03-16T21:58:47.201Z,1.83
2018-03-16T22:03:48.190Z,1.83
2018-03-16T22:08:49.181Z,2.07
2018-03-16T22:13:50.135Z,2.27
2018-03-16T22:18:51.135Z,2.37
2018-03-16T22:23:52.094Z,2.17
2018-03-16T22:28:53.031Z,2.13
2018-03-16T22:33:53.997Z,1.77
2018-03-16T22:38:54.997Z,2.80
2018-03-16T22:43:56.041Z,2.30
2018-03-16T22:48:57.027Z,1.80
2018-03-16T22:53:58.281Z,1.40
2018-03-16T22:58:59.276Z,2.10
2018-03-16T23:04:00.221Z,1.83
2018-03-16T23:09:01.161Z,2.60
2018-03-16T23:14:02.164Z,2.60
2018-03-16T23:19:03.087Z,2.47
2018-03-16T23:24:04.022Z,1.77
2018-03-16T23:29:04.974Z,1.70
2018-03-16T23:34:05.920Z,1.70
2018-03-16T23:39:06.888Z,1.57
2018-03-16T23:44:07.877Z,1.77
2018-03-16T23:49:08.837Z,1.83
2018-03-16T23:54:09.821Z,1.73
2018-03-16T23:59:10.782Z,2.50
